Time;durP1;ratioP1;P1;durP2;ratioP2;P2;SDS_P1;SDS_P2;PMS_P1;PMS_P2;Temp;Humidity;BMP_temperature;BMP_pressure;BME280_temperature;BME280_humidity;BME280_pressure;Samples;Min_cycle;Max_cycle;Signal;HPM_P1;HPM_P2
2022/10/14 00:01:18;;;;;;;84.28;18.55;;;9.50;99.90;;;;;;5135246;27;20086;-79
2022/10/14 00:03:48;;;;;;;75.97;15.68;;;9.60;99.90;;;;;;5133416;27;20506;-79
2022/10/14 00:06:18;;;;;;;28.48;8.80;;;9.60;99.90;;;;;;5116402;27;20115;-79
2022/10/14 00:08:46;;;;;;;69.78;12.20;;;9.50;99.90;;;;;;5133069;27;20058;-80
2022/10/14 00:11:16;;;;;;;26.10;9.57;;;9.50;99.90;;;;;;5132489;27;20409;-79
2022/10/14 00:13:42;;;;;;;30.30;7.85;;;9.50;99.90;;;;;;5133895;27;20043;-80
2022/10/14 00:16:19;;;;;;;36.63;8.77;;;9.50;99.90;;;;;;5134952;27;20039;-79
2022/10/14 00:18:45;;;;;;;68.00;13.40;;;9.50;99.90;;;;;;5133290;27;20106;-80
2022/10/14 00:21:12;;;;;;;65.40;13.45;;;9.50;99.90;;;;;;5134010;27;20057;-80
2022/10/14 00:23:38;;;;;;;96.95;11.38;;;9.50;99.90;;;;;;5132864;27;20054;-79
2022/10/14 00:26:05;;;;;;;103.20;12.73;;;9.60;99.90;;;;;;5132971;27;20112;-80
2022/10/14 00:28:31;;;;;;;79.55;11.55;;;9.60;99.90;;;;;;5131308;27;20138;-80
2022/10/14 00:30:59;;;;;;;234.27;27.75;;;9.50;99.90;;;;;;5115576;27;20047;-79
2022/10/14 00:33:26;;;;;;;176.18;21.20;;;9.50;99.90;;;;;;5132728;27;20051;-79
2022/10/14 00:36:03;;;;;;;115.88;17.17;;;9.50;99.90;;;;;;5132687;27;20465;-80
2022/10/14 00:38:29;;;;;;;98.65;19.45;;;9.50;99.90;;;;;;5134375;27;20096;-78
2022/10/14 00:40:55;;;;;;;54.85;10.65;;;9.50;99.90;;;;;;5135373;27;20047;-79
2022/10/14 00:43:23;;;;;;;213.60;22.13;;;9.50;99.90;;;;;;5135969;27;20047;-79
2022/10/14 00:45:49;;;;;;;145.60;17.38;;;9.50;99.90;;;;;;5135639;27;20053;-78
2022/10/14 00:48:17;;;;;;;165.45;19.77;;;9.50;99.90;;;;;;5136082;27;20477;-79
2022/10/14 00:50:46;;;;;;;312.58;26.17;;;9.50;99.90;;;;;;5154540;27;20059;-79
2022/10/14 00:53:12;;;;;;;375.05;29.38;;;9.50;99.90;;;;;;5135570;27;20047;-78
2022/10/14 00:55:41;;;;;;;56.10;10.75;;;9.50;99.90;;;;;;5134986;27;20493;-78
2022/10/14 00:58:08;;;;;;;87.00;11.98;;;9.40;99.90;;;;;;5135047;27;20059;-78
2022/10/14 01:00:34;;;;;;;72.35;13.38;;;9.40;99.90;;;;;;5154230;27;20074;-79
2022/10/14 01:03:05;;;;;;;33.13;9.30;;;9.50;99.90;;;;;;5136133;27;20105;-79
2022/10/14 01:05:40;;;;;;;71.07;12.38;;;9.50;99.90;;;;;;5153990;27;20093;-78
2022/10/14 01:08:19;;;;;;;104.03;13.30;;;9.50;99.90;;;;;;5135149;27;20051;-79
2022/10/14 01:11:11;;;;;;;120.22;14.13;;;9.50;99.90;;;;;;5135173;27;20061;-79
2022/10/14 01:13:46;;;;;;;62.45;12.25;;;9.60;99.90;;;;;;5135072;27;20505;-79
2022/10/14 01:16:30;;;;;;;125.28;15.55;;;9.60;99.90;;;;;;5134869;27;20090;-79
2022/10/14 01:19:07;;;;;;;125.97;13.32;;;9.60;99.90;;;;;;5117481;27;20054;-80
2022/10/14 01:21:50;;;;;;;137.02;13.30;;;9.60;99.90;;;;;;5106361;27;20130;-79
2022/10/14 01:24:36;;;;;;;291.95;28.45;;;9.60;99.90;;;;;;5115088;27;20126;-79
2022/10/14 01:27:05;;;;;;;51.20;9.93;;;9.60;99.90;;;;;;5153268;27;20056;-79
2022/10/14 01:29:39;;;;;;;182.10;22.40;;;9.60;99.90;;;;;;5152862;27;20505;-79
2022/10/14 01:32:12;;;;;;;90.60;12.85;;;9.60;99.90;;;;;;5134710;27;20406;-79
2022/10/14 01:34:51;;;;;;;75.28;10.60;;;9.70;99.90;;;;;;5134704;27;20049;-79
2022/10/14 01:37:23;;;;;;;77.47;11.65;;;9.70;99.90;;;;;;5134635;27;20078;-79
2022/10/14 01:40:00;;;;;;;154.18;16.35;;;9.70;99.90;;;;;;5117108;27;20043;-78
2022/10/14 01:42:33;;;;;;;180.15;16.65;;;9.70;99.90;;;;;;5153061;27;20793;-79
2022/10/14 01:45:10;;;;;;;148.27;15.10;;;9.70;99.90;;;;;;5134069;27;20055;-79
2022/10/14 01:47:38;;;;;;;228.43;21.13;;;9.60;99.90;;;;;;5152730;27;20073;-79
2022/10/14 01:50:10;;;;;;;117.95;12.60;;;9.60;99.90;;;;;;5116850;27;20051;-81
2022/10/14 01:52:43;;;;;;;153.60;15.02;;;9.60;99.90;;;;;;5134559;27;20046;-80
2022/10/14 01:55:15;;;;;;;129.15;13.02;;;9.60;99.90;;;;;;5134383;27;20046;-80
2022/10/14 01:57:44;;;;;;;166.20;17.52;;;9.60;99.90;;;;;;5134275;27;20058;-79
2022/10/14 02:00:11;;;;;;;135.82;15.10;;;9.60;99.90;;;;;;5133880;27;20129;-80
2022/10/14 02:02:37;;;;;;;140.73;15.13;;;9.50;99.90;;;;;;5152682;27;20439;-80
2022/10/14 02:05:13;;;;;;;80.60;11.73;;;9.50;99.90;;;;;;5152704;27;20452;-80
2022/10/14 02:07:43;;;;;;;92.35;10.20;;;9.50;99.90;;;;;;5137050;27;20062;-79
2022/10/14 02:10:48;;;;;;;50.47;10.20;;;9.40;99.90;;;;;;5153741;27;20039;-79
2022/10/14 02:13:58;;;;;;;117.45;12.50;;;9.40;99.90;;;;;;5130398;27;20054;-79
2022/10/14 02:16:30;;;;;;;120.93;15.05;;;9.40;99.90;;;;;;5133799;27;20050;-79
2022/10/14 02:19:04;;;;;;;76.78;11.20;;;9.30;99.90;;;;;;5152687;27;20047;-79
2022/10/14 02:21:43;;;;;;;69.03;9.98;;;9.30;99.90;;;;;;5152628;27;20062;-80
2022/10/14 02:24:17;;;;;;;48.10;8.40;;;9.30;99.90;;;;;;5133832;27;20417;-80
2022/10/14 02:26:45;;;;;;;66.95;9.65;;;9.20;99.90;;;;;;5152591;27;20065;-79
2022/10/14 02:29:11;;;;;;;64.47;11.75;;;9.10;99.90;;;;;;5133578;27;20419;-80
2022/10/14 02:31:40;;;;;;;99.53;12.07;;;9.10;99.90;;;;;;5152338;27;20051;-79
2022/10/14 02:34:10;;;;;;;105.18;11.73;;;9.10;99.90;;;;;;5152133;27;20054;-78
2022/10/14 02:36:37;;;;;;;71.68;11.05;;;9.10;99.90;;;;;;5152041;27;20493;-79
2022/10/14 02:39:06;;;;;;;127.63;12.95;;;9.10;99.90;;;;;;5152347;27;20046;-80
2022/10/14 02:41:36;;;;;;;92.80;10.98;;;9.10;99.90;;;;;;5133752;27;20046;-80
2022/10/14 02:44:04;;;;;;;242.60;22.98;;;9.10;99.90;;;;;;5133692;27;20058;-79
2022/10/14 02:46:32;;;;;;;107.75;13.90;;;9.20;99.90;;;;;;5116365;27;20046;-80
2022/10/14 02:48:58;;;;;;;186.90;16.30;;;9.10;99.90;;;;;;5152346;27;20047;-79
2022/10/14 02:51:24;;;;;;;83.50;11.88;;;9.10;99.90;;;;;;5154787;27;20046;-79
2022/10/14 02:53:49;;;;;;;182.93;16.40;;;9.10;99.90;;;;;;5159353;27;20070;-79
2022/10/14 02:56:16;;;;;;;137.93;14.57;;;9.10;99.90;;;;;;5121089;27;20433;-79
2022/10/14 02:58:43;;;;;;;192.48;22.10;;;9.10;99.90;;;;;;5156500;27;20047;-78
2022/10/14 03:01:09;;;;;;;156.35;16.20;;;9.10;99.90;;;;;;5156189;27;20042;-78
2022/10/14 03:03:35;;;;;;;133.02;13.90;;;9.20;99.90;;;;;;5141804;27;20046;-79
2022/10/14 03:06:00;;;;;;;98.18;13.52;;;9.10;99.90;;;;;;5137750;27;20051;-80
2022/10/14 03:08:26;;;;;;;25.27;8.88;;;9.10;99.90;;;;;;5155843;27;20046;-81
2022/10/14 03:10:52;;;;;;;43.85;8.60;;;9.10;99.90;;;;;;5137204;27;20046;-80
2022/10/14 03:13:18;;;;;;;27.17;10.10;;;9.10;99.90;;;;;;5137537;27;20050;-80
2022/10/14 03:15:47;;;;;;;46.53;9.65;;;9.10;99.90;;;;;;5137253;27;20505;-80
2022/10/14 03:18:13;;;;;;;20.83;8.23;;;9.10;99.90;;;;;;5156234;27;20073;-80
2022/10/14 03:20:39;;;;;;;48.25;11.02;;;9.10;99.90;;;;;;5154768;27;20431;-80
2022/10/14 03:23:05;;;;;;;70.25;12.30;;;9.10;99.90;;;;;;5156303;27;20043;-79
2022/10/14 03:25:31;;;;;;;34.60;8.50;;;9.00;99.90;;;;;;5152684;27;20513;-80
2022/10/14 03:27:57;;;;;;;83.80;11.18;;;9.10;99.90;;;;;;5131838;27;20440;-80
2022/10/14 03:30:23;;;;;;;73.43;10.30;;;9.00;99.90;;;;;;5137084;27;20056;-81
2022/10/14 03:32:49;;;;;;;103.55;12.25;;;9.00;99.90;;;;;;5155342;27;20062;-78
2022/10/14 03:35:14;;;;;;;69.22;10.18;;;9.00;99.90;;;;;;5155458;27;20039;-80
2022/10/14 03:37:40;;;;;;;55.35;9.02;;;9.00;99.90;;;;;;5136656;27;20062;-80
2022/10/14 03:40:07;;;;;;;50.33;9.30;;;8.90;99.90;;;;;;5136335;27;20054;-80
2022/10/14 03:42:33;;;;;;;64.47;9.93;;;8.90;99.90;;;;;;5155385;27;20078;-81
2022/10/14 03:44:59;;;;;;;28.65;7.30;;;8.90;99.90;;;;;;5136752;27;20481;-80
2022/10/14 03:47:25;;;;;;;59.55;9.73;;;8.90;99.90;;;;;;5155028;27;20038;-80
2022/10/14 03:49:50;;;;;;;84.03;10.68;;;8.90;99.90;;;;;;5136271;27;20052;-80
2022/10/14 03:52:16;;;;;;;123.35;13.82;;;8.90;99.90;;;;;;5119327;27;20411;-80
2022/10/14 03:54:42;;;;;;;69.80;10.07;;;8.90;99.90;;;;;;5119224;27;20058;-80
2022/10/14 03:57:08;;;;;;;122.82;14.43;;;9.00;99.90;;;;;;5155796;27;20050;-79
2022/10/14 03:59:34;;;;;;;136.13;19.50;;;9.00;99.90;;;;;;5155534;27;20486;-80
2022/10/14 04:02:00;;;;;;;98.97;11.25;;;9.00;99.90;;;;;;5135264;27;20555;-80
2022/10/14 04:04:26;;;;;;;108.45;13.35;;;9.00;99.90;;;;;;5154735;27;20428;-80
2022/10/14 04:06:52;;;;;;;111.38;12.90;;;9.00;99.90;;;;;;5154627;27;20099;-80
2022/10/14 04:09:19;;;;;;;129.82;13.23;;;9.10;99.90;;;;;;5118598;27;20097;-80
2022/10/14 04:11:45;;;;;;;132.05;13.75;;;9.10;99.90;;;;;;5136081;27;20518;-79
2022/10/14 04:14:11;;;;;;;150.68;15.27;;;9.10;99.90;;;;;;5136455;27;20090;-80
2022/10/14 04:16:37;;;;;;;80.97;10.68;;;9.10;99.90;;;;;;5135911;27;20142;-80
2022/10/14 04:19:03;;;;;;;120.63;14.15;;;9.10;99.90;;;;;;5154448;27;20129;-80
2022/10/14 04:21:28;;;;;;;52.80;9.00;;;9.10;99.90;;;;;;5135932;27;20054;-80
2022/10/14 04:23:54;;;;;;;76.38;10.00;;;9.20;99.90;;;;;;5154191;27;20078;-78
2022/10/14 04:26:20;;;;;;;106.70;11.50;;;9.20;99.90;;;;;;5154301;27;20046;-79
2022/10/14 04:28:46;;;;;;;81.07;10.77;;;9.20;99.90;;;;;;5154466;27;20057;-78
2022/10/14 04:31:12;;;;;;;76.88;11.98;;;9.20;99.90;;;;;;5154532;27;20051;-79
2022/10/14 04:33:38;;;;;;;76.63;10.88;;;9.20;99.90;;;;;;5154349;27;20059;-78
2022/10/14 04:36:05;;;;;;;49.40;8.43;;;9.20;99.90;;;;;;5154141;27;20054;-78
2022/10/14 04:38:32;;;;;;;97.22;12.50;;;9.20;99.90;;;;;;5135728;27;20501;-79
2022/10/14 04:40:59;;;;;;;126.45;13.18;;;9.30;99.90;;;;;;5154521;27;20387;-79
2022/10/14 04:43:25;;;;;;;99.00;11.20;;;9.30;99.90;;;;;;5154423;27;20053;-78
2022/10/14 04:45:50;;;;;;;78.65;10.68;;;9.30;99.90;;;;;;5153974;27;20042;-78
2022/10/14 04:48:17;;;;;;;68.97;9.73;;;9.40;99.90;;;;;;5135419;27;20050;-77
2022/10/14 04:50:46;;;;;;;75.97;10.43;;;9.40;99.90;;;;;;5135394;27;20059;-78
2022/10/14 04:53:11;;;;;;;86.50;10.38;;;9.40;99.90;;;;;;5135175;27;20636;-77
2022/10/14 04:55:37;;;;;;;84.07;10.75;;;9.40;99.90;;;;;;5153750;27;20071;-80
2022/10/14 04:58:03;;;;;;;43.15;8.00;;;9.40;99.90;;;;;;5135056;27;20042;-80
2022/10/14 05:00:29;;;;;;;120.07;14.05;;;9.50;99.90;;;;;;5153799;27;20129;-79
2022/10/14 05:02:55;;;;;;;64.43;10.77;;;9.50;99.90;;;;;;5135249;27;20141;-80
2022/10/14 05:05:21;;;;;;;41.53;10.10;;;9.50;99.90;;;;;;5135065;27;20057;-80
2022/10/14 05:07:47;;;;;;;42.80;10.90;;;9.50;99.90;;;;;;5153331;27;20050;-78
2022/10/14 05:10:13;;;;;;;79.78;13.98;;;9.60;99.90;;;;;;5153495;27;20061;-80
2022/10/14 05:12:39;;;;;;;108.22;15.50;;;9.60;99.90;;;;;;5134959;27;20140;-79
2022/10/14 05:15:06;;;;;;;145.95;16.80;;;9.60;99.90;;;;;;5134941;27;20508;-81
2022/10/14 05:17:32;;;;;;;117.90;13.95;;;9.60;99.90;;;;;;5153301;27;20050;-79
2022/10/14 05:19:59;;;;;;;99.00;12.70;;;9.60;99.90;;;;;;5134575;27;20051;-80
2022/10/14 05:22:25;;;;;;;85.05;11.93;;;9.60;99.90;;;;;;5153249;27;20050;-79
2022/10/14 05:24:50;;;;;;;153.73;17.02;;;9.60;99.90;;;;;;5134603;27;20501;-80
2022/10/14 05:27:17;;;;;;;198.35;19.33;;;9.60;99.90;;;;;;5153038;27;20061;-78
2022/10/14 05:29:43;;;;;;;157.40;14.73;;;9.60;99.90;;;;;;5153073;27;20470;-80
2022/10/14 05:32:09;;;;;;;126.03;13.05;;;9.70;99.90;;;;;;5134721;27;20390;-81
2022/10/14 05:34:35;;;;;;;125.07;15.85;;;9.60;99.90;;;;;;5135144;27;20131;-79
2022/10/14 05:37:01;;;;;;;142.98;14.80;;;9.70;99.90;;;;;;5153031;27;20517;-80
2022/10/14 05:39:27;;;;;;;146.32;18.58;;;9.70;99.90;;;;;;5153829;27;20051;-80
2022/10/14 05:41:53;;;;;;;162.38;17.98;;;9.70;99.90;;;;;;5134689;27;20086;-79
2022/10/14 05:44:19;;;;;;;143.55;15.98;;;9.70;99.90;;;;;;5133997;27;20093;-79
2022/10/14 05:46:45;;;;;;;144.15;14.73;;;9.70;99.90;;;;;;5134292;27;20099;-80
2022/10/14 05:49:11;;;;;;;88.88;13.57;;;9.70;99.90;;;;;;5137054;27;20137;-79
2022/10/14 05:51:37;;;;;;;98.70;11.25;;;9.70;99.90;;;;;;5153180;27;20121;-79
2022/10/14 05:54:03;;;;;;;58.40;8.68;;;9.60;99.90;;;;;;5134502;27;20130;-80
2022/10/14 05:56:29;;;;;;;104.50;11.95;;;9.60;99.90;;;;;;5152969;27;20403;-78
2022/10/14 05:58:55;;;;;;;169.10;18.58;;;9.60;99.90;;;;;;5117193;27;20135;-77
2022/10/14 06:01:21;;;;;;;129.07;14.05;;;9.60;99.90;;;;;;5134082;27;20050;-78
2022/10/14 06:03:51;;;;;;;117.30;13.20;;;9.60;99.90;;;;;;5134423;27;20055;-78
2022/10/14 06:06:17;;;;;;;148.80;16.15;;;9.60;99.90;;;;;;5133880;27;20111;-77
2022/10/14 06:08:43;;;;;;;218.75;22.92;;;9.60;99.90;;;;;;5133869;27;20043;-79
2022/10/14 06:11:10;;;;;;;167.30;18.73;;;9.60;99.90;;;;;;5152727;27;20134;-80
2022/10/14 06:13:37;;;;;;;157.82;17.88;;;9.60;99.90;;;;;;5134335;27;20082;-78
2022/10/14 06:16:05;;;;;;;72.15;12.70;;;9.70;99.90;;;;;;5133803;27;20574;-79
2022/10/14 06:18:32;;;;;;;191.32;21.92;;;9.70;99.90;;;;;;5152219;27;20046;-81
2022/10/14 06:20:58;;;;;;;81.97;12.35;;;9.70;99.90;;;;;;5134284;27;20042;-80
2022/10/14 06:23:24;;;;;;;140.75;18.88;;;9.70;99.90;;;;;;5134050;27;20103;-79
2022/10/14 06:25:50;;;;;;;147.40;21.08;;;9.70;99.90;;;;;;5135030;27;20463;-79
2022/10/14 06:28:15;;;;;;;103.53;15.35;;;9.80;99.90;;;;;;5138410;27;20556;-79
2022/10/14 06:30:41;;;;;;;97.05;15.25;;;9.80;99.90;;;;;;5139928;27;20050;-78
2022/10/14 06:33:07;;;;;;;114.00;16.73;;;9.80;99.90;;;;;;5139943;27;20043;-78
2022/10/14 06:35:33;;;;;;;135.32;19.05;;;9.80;99.90;;;;;;5139114;27;20143;-79
2022/10/14 06:37:59;;;;;;;107.85;15.25;;;9.80;99.90;;;;;;5138188;27;20046;-79
2022/10/14 06:40:25;;;;;;;114.93;15.15;;;9.80;99.90;;;;;;5156206;27;20058;-80
2022/10/14 06:42:52;;;;;;;136.77;17.05;;;9.80;99.90;;;;;;5156878;27;20050;-79
2022/10/14 06:45:18;;;;;;;97.28;17.38;;;9.80;99.90;;;;;;5156352;27;20051;-80
2022/10/14 06:47:44;;;;;;;100.22;16.33;;;9.80;99.90;;;;;;5137977;27;20057;-80
2022/10/14 06:50:10;;;;;;;99.95;17.23;;;9.80;99.90;;;;;;5138496;27;20047;-79
2022/10/14 06:52:36;;;;;;;136.30;18.85;;;9.80;99.90;;;;;;5121881;27;20047;-80
2022/10/14 06:55:02;;;;;;;237.55;24.58;;;9.90;99.90;;;;;;5156081;27;20053;-79
2022/10/14 06:57:28;;;;;;;171.88;20.65;;;9.90;99.90;;;;;;5156092;27;20050;-79
2022/10/14 06:59:54;;;;;;;120.25;18.35;;;9.90;99.90;;;;;;5156020;27;20133;-80
2022/10/14 07:02:20;;;;;;;172.20;22.63;;;10.00;99.90;;;;;;5155722;27;20058;-80
2022/10/14 07:04:46;;;;;;;151.38;23.30;;;10.00;99.90;;;;;;5137755;27;20043;-80
2022/10/14 07:07:12;;;;;;;136.93;21.40;;;10.00;99.90;;;;;;5156495;27;20841;-80
2022/10/14 07:09:38;;;;;;;125.00;19.02;;;10.00;99.90;;;;;;5137504;27;20051;-81
2022/10/14 07:12:04;;;;;;;110.47;19.52;;;10.10;99.90;;;;;;5137566;27;20082;-80
2022/10/14 07:14:30;;;;;;;154.73;23.58;;;10.10;99.90;;;;;;5155726;27;20139;-79
2022/10/14 07:16:56;;;;;;;119.22;22.05;;;10.20;99.90;;;;;;5156267;27;20039;-79
2022/10/14 07:19:22;;;;;;;102.93;20.52;;;10.20;99.90;;;;;;5137210;27;20050;-79
2022/10/14 07:21:48;;;;;;;95.68;19.77;;;10.30;99.90;;;;;;5138091;27;20047;-79
2022/10/14 07:24:14;;;;;;;107.60;21.20;;;10.30;99.90;;;;;;5156695;27;20059;-80
2022/10/14 07:26:40;;;;;;;73.90;18.50;;;10.40;99.90;;;;;;5138728;27;20035;-80
2022/10/14 07:29:06;;;;;;;61.33;16.90;;;10.40;99.90;;;;;;5138071;27;20451;-79
2022/10/14 07:31:32;;;;;;;119.15;21.25;;;10.50;99.90;;;;;;5137450;27;20413;-79
2022/10/14 07:34:00;;;;;;;52.88;15.95;;;10.50;99.90;;;;;;5102982;27;20565;-79
2022/10/14 07:36:26;;;;;;;56.75;17.33;;;10.60;99.90;;;;;;5137643;27;20038;-79
2022/10/14 07:38:53;;;;;;;44.75;16.08;;;10.70;99.90;;;;;;5137196;27;20061;-79
2022/10/14 07:41:22;;;;;;;63.53;17.33;;;10.70;99.90;;;;;;5136318;27;20046;-79
2022/10/14 07:44:01;;;;;;;98.13;19.70;;;10.80;99.90;;;;;;5136628;27;20058;-79
2022/10/14 07:46:30;;;;;;;118.85;24.75;;;10.80;99.90;;;;;;5155052;27;20122;-78
2022/10/14 07:49:03;;;;;;;53.92;18.33;;;10.80;99.90;;;;;;5136870;27;20046;-80
2022/10/14 07:51:30;;;;;;;95.78;20.30;;;10.80;99.90;;;;;;5136461;27;20050;-79
2022/10/14 07:53:58;;;;;;;116.97;22.92;;;10.80;99.90;;;;;;5154975;27;20525;-79
2022/10/14 07:56:25;;;;;;;164.02;26.77;;;10.80;99.90;;;;;;5155034;27;20080;-79
2022/10/14 07:58:51;;;;;;;91.95;21.00;;;10.80;99.90;;;;;;5155290;27;20525;-80
2022/10/14 08:01:18;;;;;;;116.22;23.10;;;10.80;99.90;;;;;;5136574;27;20047;-80
2022/10/14 08:03:45;;;;;;;110.60;22.27;;;10.90;99.90;;;;;;5136362;27;20637;-80
2022/10/14 08:06:12;;;;;;;109.32;21.77;;;10.90;99.90;;;;;;5135869;27;20042;-78
2022/10/14 08:08:38;;;;;;;124.88;23.52;;;10.90;99.90;;;;;;5136247;27;20150;-80
2022/10/14 08:11:08;;;;;;;75.28;18.52;;;11.00;99.90;;;;;;5135635;27;20521;-80
2022/10/14 08:13:35;;;;;;;76.28;20.15;;;11.10;99.90;;;;;;5136368;27;20042;-80
2022/10/14 08:16:01;;;;;;;77.00;19.70;;;11.10;99.90;;;;;;5118567;27;20047;-81
2022/10/14 08:18:28;;;;;;;79.97;20.23;;;11.10;99.90;;;;;;5154720;27;20047;-81
2022/10/14 08:20:54;;;;;;;76.68;18.98;;;11.20;99.90;;;;;;5120757;27;20134;-81
2022/10/14 08:23:20;;;;;;;105.18;20.73;;;11.20;99.90;;;;;;5154414;27;20069;-80
2022/10/14 08:25:48;;;;;;;111.55;20.45;;;11.20;99.90;;;;;;5135565;27;20057;-80
2022/10/14 08:28:14;;;;;;;74.32;18.70;;;11.20;99.90;;;;;;5135601;27;20054;-81
2022/10/14 08:30:39;;;;;;;68.68;20.23;;;11.30;99.90;;;;;;5136034;27;20098;-80
2022/10/14 08:33:06;;;;;;;91.03;21.40;;;11.30;99.90;;;;;;5155333;27;20046;-80
2022/10/14 08:35:32;;;;;;;73.75;20.33;;;11.30;99.90;;;;;;5135833;27;20054;-80
2022/10/14 08:38:00;;;;;;;51.25;19.48;;;11.30;99.90;;;;;;5135394;27;20508;-79
2022/10/14 08:40:32;;;;;;;78.38;20.35;;;11.40;99.90;;;;;;5135110;27;20062;-79
2022/10/14 08:43:00;;;;;;;48.90;18.10;;;11.40;99.90;;;;;;5154220;27;20057;-80
2022/10/14 08:45:37;;;;;;;48.03;18.52;;;11.40;99.90;;;;;;5118229;27;20142;-78
2022/10/14 08:48:20;;;;;;;39.60;16.88;;;11.40;99.90;;;;;;5153433;27;20121;-79
2022/10/14 08:50:55;;;;;;;55.28;20.90;;;11.50;99.90;;;;;;5135449;27;20047;-77
2022/10/14 08:53:57;;;;;;;39.03;17.13;;;11.60;99.90;;;;;;5154069;27;20071;-79
2022/10/14 08:56:23;;;;;;;42.65;17.80;;;11.70;99.90;;;;;;5153969;27;20057;-79
2022/10/14 08:58:53;;;;;;;44.35;17.80;;;11.80;99.90;;;;;;5153633;27;20046;-79
2022/10/14 09:01:27;;;;;;;45.20;19.67;;;11.80;99.90;;;;;;5153622;27;20526;-79
2022/10/14 09:03:57;;;;;;;50.13;20.85;;;11.90;99.90;;;;;;5153510;27;20053;-80
2022/10/14 09:06:29;;;;;;;42.90;18.85;;;11.90;99.90;;;;;;5101335;27;20502;-79
2022/10/14 09:09:22;;;;;;;45.90;19.80;;;12.00;99.90;;;;;;5135576;27;20057;-79
2022/10/14 09:12:00;;;;;;;52.63;20.23;;;12.10;99.90;;;;;;5135143;27;20139;-78
2022/10/14 09:14:34;;;;;;;52.42;20.17;;;12.20;99.90;;;;;;5118273;27;20077;-79
2022/10/14 09:17:17;;;;;;;53.60;20.95;;;12.30;99.90;;;;;;5135713;27;20050;-81
2022/10/14 09:19:57;;;;;;;57.40;22.30;;;12.40;99.90;;;;;;5135066;27;20047;-79
2022/10/14 09:22:23;;;;;;;50.47;21.15;;;12.40;99.90;;;;;;5135081;27;20065;-79
2022/10/14 09:24:49;;;;;;;51.65;21.40;;;12.50;99.90;;;;;;5134874;27;20050;-79
2022/10/14 09:27:20;;;;;;;46.47;20.92;;;12.40;99.90;;;;;;5135212;27;20191;-81
2022/10/14 09:30:09;;;;;;;51.08;21.98;;;12.50;99.90;;;;;;5153352;27;20402;-78
2022/10/14 09:32:42;;;;;;;55.63;22.35;;;12.50;99.90;;;;;;5135116;27;20167;-79
2022/10/14 09:35:23;;;;;;;55.42;24.05;;;12.60;99.90;;;;;;5153186;27;20050;-79
2022/10/14 09:37:50;;;;;;;47.67;23.00;;;12.70;99.90;;;;;;5134260;27;20051;-79
2022/10/14 09:40:35;;;;;;;42.30;21.10;;;12.80;99.90;;;;;;5133750;27;20050;-79
2022/10/14 09:43:16;;;;;;;40.80;21.48;;;12.90;99.90;;;;;;5153430;27;20205;-79
2022/10/14 09:45:45;;;;;;;45.22;21.65;;;13.10;99.90;;;;;;5152717;27;20054;-79
2022/10/14 09:48:17;;;;;;;47.25;21.48;;;13.10;99.90;;;;;;5133938;27;20564;-80
2022/10/14 09:50:50;;;;;;;41.20;20.30;;;13.10;99.90;;;;;;5152873;27;20055;-79
2022/10/14 09:53:25;;;;;;;44.45;21.75;;;13.10;99.90;;;;;;5153025;27;20042;-79
2022/10/14 09:56:03;;;;;;;40.10;20.50;;;13.10;99.90;;;;;;5117149;27;20046;-79
2022/10/14 09:58:35;;;;;;;45.17;22.45;;;13.00;99.90;;;;;;5152968;27;20055;-79
2022/10/14 10:01:02;;;;;;;45.60;23.17;;;13.10;99.90;;;;;;5134499;27;20046;-79
2022/10/14 10:03:34;;;;;;;40.70;20.40;;;13.20;99.90;;;;;;5152659;27;20082;-79
2022/10/14 10:06:06;;;;;;;46.35;21.80;;;13.30;99.90;;;;;;5134270;27;20225;-79
2022/10/14 10:08:35;;;;;;;44.55;21.85;;;13.40;99.90;;;;;;5153073;27;20103;-79
2022/10/14 10:11:12;;;;;;;43.58;21.75;;;13.40;99.90;;;;;;5116916;27;20095;-79
2022/10/14 10:13:45;;;;;;;43.38;21.92;;;13.50;99.90;;;;;;5153126;27;20099;-79
2022/10/14 10:16:30;;;;;;;48.90;22.88;;;13.60;99.90;;;;;;5152815;27;20562;-80
2022/10/14 10:18:59;;;;;;;43.40;22.75;;;13.70;99.90;;;;;;5152772;27;20394;-79
2022/10/14 10:21:28;;;;;;;44.90;22.48;;;13.80;99.90;;;;;;5152692;27;20047;-79
2022/10/14 10:23:57;;;;;;;40.13;22.00;;;13.90;99.90;;;;;;5152635;27;20402;-82
2022/10/14 10:26:32;;;;;;;41.53;21.25;;;13.90;99.90;;;;;;5152264;27;20054;-81
2022/10/14 10:29:04;;;;;;;43.35;22.67;;;14.00;99.90;;;;;;5133312;27;20490;-79
2022/10/14 10:32:05;;;;;;;40.13;22.73;;;13.90;99.90;;;;;;5133857;27;20062;-80
2022/10/14 10:34:40;;;;;;;42.40;22.30;;;13.90;99.90;;;;;;5152773;27;20046;-79
2022/10/14 10:37:50;;;;;;;44.67;22.88;;;13.80;99.90;;;;;;5133841;27;20058;-79
2022/10/14 10:40:15;;;;;;;42.40;22.88;;;13.70;99.90;;;;;;5133197;27;20066;-78
2022/10/14 10:43:05;;;;;;;45.85;24.45;;;13.70;99.90;;;;;;5133277;27;20054;-80
2022/10/14 10:46:04;;;;;;;45.22;23.33;;;13.70;99.90;;;;;;5152292;27;20053;-81
2022/10/14 10:48:44;;;;;;;38.03;22.70;;;13.70;99.90;;;;;;5133668;27;20050;-81
2022/10/14 10:51:35;;;;;;;45.20;22.80;;;13.70;99.90;;;;;;5133361;27;20490;-79
2022/10/14 10:54:06;;;;;;;45.33;22.63;;;13.70;99.90;;;;;;5134075;27;20064;-79
2022/10/14 10:56:47;;;;;;;40.85;22.50;;;13.70;99.90;;;;;;5116370;27;20154;-79
2022/10/14 10:59:29;;;;;;;42.17;22.83;;;13.70;99.90;;;;;;5133744;27;20047;-79
2022/10/14 11:02:13;;;;;;;36.10;20.33;;;13.80;99.90;;;;;;5133901;27;20046;-80
2022/10/14 11:04:49;;;;;;;43.97;22.33;;;13.80;99.90;;;;;;5134316;27;20058;-79
2022/10/14 11:13:07;;;;;;;42.30;22.35;;;13.90;99.90;;;;;;5137099;27;20047;-79
2022/10/14 11:15:41;;;;;;;40.50;21.63;;;13.90;99.90;;;;;;5159202;27;20586;-79
2022/10/14 11:18:19;;;;;;;38.55;20.17;;;13.90;99.90;;;;;;5122549;27;20055;-79
2022/10/14 11:21:20;;;;;;;34.55;18.42;;;13.90;99.90;;;;;;5137793;27;20101;-81
2022/10/14 11:24:00;;;;;;;34.53;18.90;;;13.90;99.90;;;;;;5086221;27;20137;-81
2022/10/14 11:26:29;;;;;;;34.22;19.40;;;13.90;99.90;;;;;;5155730;27;20123;-78
2022/10/14 11:29:27;;;;;;;33.85;19.70;;;13.90;99.90;;;;;;5137295;27;20141;-81
2022/10/14 11:32:19;;;;;;;32.95;18.50;;;13.90;99.90;;;;;;5116423;27;20107;-80
2022/10/14 11:34:57;;;;;;;32.17;18.05;;;13.90;99.90;;;;;;5143696;27;20046;-77
2022/10/14 11:37:45;;;;;;;31.63;18.23;;;13.80;99.90;;;;;;5155314;27;20563;-78
2022/10/14 11:40:34;;;;;;;30.85;16.73;;;13.90;99.90;;;;;;5136373;27;20130;-80
2022/10/14 11:43:18;;;;;;;31.05;16.77;;;13.90;99.90;;;;;;5155572;27;20134;-80
2022/10/14 11:46:07;;;;;;;30.42;16.55;;;13.90;99.90;;;;;;5136567;27;20054;-79
2022/10/14 11:48:36;;;;;;;34.55;18.42;;;14.00;99.90;;;;;;5155235;27;20138;-79
2022/10/14 11:51:20;;;;;;;31.33;17.30;;;14.10;99.90;;;;;;5136522;27;20590;-79
2022/10/14 11:53:52;;;;;;;30.85;17.63;;;14.10;99.90;;;;;;5119825;27;20115;-78
2022/10/14 11:56:31;;;;;;;27.77;16.42;;;14.20;99.90;;;;;;5155116;27;20039;-80
2022/10/14 11:59:06;;;;;;;25.05;14.30;;;14.20;99.90;;;;;;5136704;27;20055;-78
2022/10/14 12:01:39;;;;;;;27.30;14.85;;;14.30;99.90;;;;;;5136520;27;20069;-78
2022/10/14 12:04:27;;;;;;;22.27;13.75;;;14.30;99.90;;;;;;5136795;27;20511;-80
2022/10/14 12:07:04;;;;;;;20.90;13.20;;;14.40;99.90;;;;;;5154548;27;20039;-82
2022/10/14 12:09:40;;;;;;;17.77;11.07;;;14.40;99.90;;;;;;5155333;27;20738;-80
2022/10/14 12:12:10;;;;;;;23.02;11.80;;;14.40;99.90;;;;;;5119782;27;20053;-80
2022/10/14 12:14:49;;;;;;;17.13;10.18;;;14.30;99.90;;;;;;5119882;27;20050;-78
2022/10/14 12:17:21;;;;;;;21.30;9.77;;;14.30;99.90;;;;;;5155124;27;20053;-79
2022/10/14 12:19:48;;;;;;;15.23;9.15;;;14.20;99.90;;;;;;5155158;27;20099;-77
2022/10/14 12:22:26;;;;;;;18.17;9.50;;;14.20;99.90;;;;;;5119786;27;20050;-79
2022/10/14 12:24:54;;;;;;;18.95;9.65;;;14.20;99.90;;;;;;5135249;27;20054;-79
2022/10/14 12:27:23;;;;;;;13.68;7.40;;;14.10;99.90;;;;;;5135650;27;20045;-79
2022/10/14 12:29:50;;;;;;;17.48;9.02;;;14.10;99.90;;;;;;5135910;27;20062;-80
2022/10/14 12:32:19;;;;;;;18.77;9.48;;;14.10;99.90;;;;;;5153198;27;20501;-77
2022/10/14 12:34:55;;;;;;;16.33;8.43;;;14.10;99.90;;;;;;5135860;27;20043;-78
2022/10/14 12:37:24;;;;;;;11.50;7.03;;;14.00;99.90;;;;;;5135684;27;20050;-79
2022/10/14 12:39:52;;;;;;;15.70;8.30;;;14.00;99.90;;;;;;5131747;27;20513;-80
2022/10/14 12:42:20;;;;;;;12.30;6.90;;;14.00;99.90;;;;;;5115322;27;20448;-79
2022/10/14 12:44:54;;;;;;;12.82;7.15;;;14.00;99.90;;;;;;5114827;27;20086;-79
2022/10/14 12:47:23;;;;;;;10.32;5.78;;;14.00;99.90;;;;;;5132307;27;20054;-78
2022/10/14 12:49:55;;;;;;;13.40;7.40;;;14.00;99.90;;;;;;5132029;27;20418;-82
2022/10/14 12:52:37;;;;;;;12.48;6.85;;;14.00;99.90;;;;;;5132994;27;20115;-80
2022/10/14 12:55:25;;;;;;;12.10;6.55;;;14.00;99.90;;;;;;5135357;27;20075;-82